Impacts TAF Board INFO
FOR SITUATIONAL AWARENESS. NOT TO BE USED FOR FLIGHT PLANNING PURPOSES.
IDs:

KLAS - Las Vegas/McCarran I, NV, US

Issued at 1143 UTC 19 Jan 2018
Updated at 1307 UTC 19 Jan 2018
Potential Impact None Slight Moderate High
Time1256Z 19/14Z 19/15Z 19/16Z 19/17Z 19/18Z 19/19Z 19/20Z 19/21Z 19/22Z 19/23Z 20/00Z 20/01Z 20/02Z>>
Type OBS PRVL PRVL PRVL PRVL PRVL PRVL PRVL PRVL PRVL PRVL PRVL PRVL PRVL
VIS 10 >6 >6 >6 >6 >6 >6 >6 >6 >6 >6 >6 >6 >6
CIG -- 250 250 250 250 250 250 250 250 250 250 250 250 250
Cover SCT BKN BKN BKN BKN BKN BKN BKN BKN BKN BKN BKN BKN BKN
FltCat VFR VFR VFR VFR VFR VFR VFR VFR VFR VFR VFR VFR VFR VFR
WX -- -- -- -- -- -- -- -- -- -- -- -- -- --
WDir 270 230 230 230 230 200 200 200 200 210 210 210 210 210
WSpd 4 6 6 6 6 11 11 11 11 15 15 15 15 15
WGst -- -- -- -- -- 17 17 17 17 25 25 25 25 25

Raw TAF
KLAS 191143Z 1912/2018 23006KT P6SM BKN250
  FM191800 20011G17KT P6SM BKN250
  FM192200 21015G25KT P6SM BKN250
  FM200500 22016G26KT P6SM SCT070 BKN100
  FM201500 31016G26KT P6SM SCT070 BKN100


Raw METAR
KLAS 191256Z 27004KT 10SM SCT220 10/03 A2992 RMK AO2 SLP126 T01000033
KLAS 191156Z 27006KT 10SM SCT220 10/04 A2993 RMK AO2 SLP125 T01000039 10128 20100 56016
KLAS 191056Z 26004KT 10SM SCT220 10/04 A2994 RMK AO2 SLP130 T01000039

METAR Board
Radar Display
Forecast Discussion

FOR SITUATIONAL AWARENESS. NOT TO BE USED FOR FLIGHT PLANNING PURPOSES.